createdAt,value
2023-03-17T00:02:25.081Z,4.00
2023-03-17T00:06:30.770Z,4.28
2023-03-17T00:10:33.656Z,4.15
2023-03-17T00:14:38.003Z,4.07
2023-03-17T00:18:40.882Z,3.75
2023-03-17T00:22:44.527Z,4.10
2023-03-17T00:26:48.222Z,4.00
2023-03-17T00:30:55.698Z,4.38
2023-03-17T00:34:58.726Z,3.90
2023-03-17T00:39:01.988Z,3.70
2023-03-17T00:43:04.799Z,4.05
2023-03-17T00:47:12.038Z,4.13
2023-03-17T00:51:15.551Z,3.85
2023-03-17T00:55:20.770Z,4.28
2023-03-17T00:59:28.905Z,4.30
2023-03-17T01:03:34.343Z,4.10
2023-03-17T01:07:38.130Z,3.88
2023-03-17T01:11:42.056Z,4.20
2023-03-17T01:15:47.317Z,4.20
2023-03-17T01:19:51.388Z,4.10
2023-03-17T01:23:55.021Z,4.18
2023-03-17T01:28:00.446Z,4.15
2023-03-17T01:32:03.950Z,4.00
2023-03-17T01:36:10.485Z,3.80
2023-03-17T01:40:17.227Z,4.32
2023-03-17T01:44:20.598Z,3.67
2023-03-17T01:48:24.836Z,3.95
2023-03-17T01:52:29.929Z,4.28
2023-03-17T01:56:33.399Z,3.80
2023-03-17T02:00:36.540Z,3.75
2023-03-17T02:04:40.234Z,4.18
2023-03-17T02:08:44.840Z,4.05
2023-03-17T02:12:51.863Z,4.00
2023-03-17T02:16:54.769Z,4.10
2023-03-17T02:21:31.229Z,3.90
2023-03-17T02:25:38.605Z,4.10
2023-03-17T02:29:41.977Z,4.00
2023-03-17T02:33:44.888Z,3.85
2023-03-17T02:37:47.692Z,3.97
2023-03-17T02:41:51.834Z,3.75
2023-03-17T02:45:54.674Z,3.97
2023-03-17T02:49:57.736Z,3.78
2023-03-17T02:54:01.028Z,3.70
2023-03-17T02:58:05.137Z,4.28
2023-03-17T03:02:07.960Z,3.40
2023-03-17T03:06:10.802Z,3.63
2023-03-17T03:10:14.456Z,3.58
2023-03-17T03:14:18.550Z,3.35
2023-03-17T03:18:21.267Z,3.75
2023-03-17T03:22:24.260Z,3.97
2023-03-17T03:26:27.187Z,3.80
2023-03-17T03:30:31.566Z,3.70
2023-03-17T03:34:34.596Z,4.05
2023-03-17T03:38:37.441Z,4.45
2023-03-17T03:42:40.179Z,4.63
2023-03-17T03:46:44.297Z,4.60
2023-03-17T03:50:47.417Z,4.72
2023-03-17T03:54:50.205Z,4.22
2023-03-17T03:58:52.970Z,4.28
2023-03-17T04:02:57.085Z,4.40
2023-03-17T04:06:59.904Z,4.15
2023-03-17T04:11:02.686Z,4.00
2023-03-17T04:15:06.296Z,3.90
2023-03-17T04:19:11.112Z,4.07
2023-03-17T04:23:13.961Z,3.75
2023-03-17T04:27:17.417Z,4.00
2023-03-17T04:31:20.184Z,4.25
2023-03-17T04:35:24.345Z,4.28
2023-03-17T04:39:27.514Z,4.10
2023-03-17T04:43:30.239Z,4.15
2023-03-17T04:47:33.054Z,3.70
2023-03-17T04:51:37.571Z,4.10
2023-03-17T04:55:40.414Z,4.15
2023-03-17T04:59:43.555Z,4.22
2023-03-17T05:03:46.283Z,4.72
2023-03-17T05:07:50.351Z,4.50
2023-03-17T05:11:53.098Z,4.20
2023-03-17T05:15:57.510Z,4.20
2023-03-17T05:20:00.396Z,4.20
2023-03-17T05:24:05.124Z,4.43
2023-03-17T05:28:08.089Z,4.30
2023-03-17T05:32:11.640Z,4.28
2023-03-17T05:36:14.430Z,4.10
2023-03-17T05:40:18.709Z,4.57
2023-03-17T05:44:21.711Z,4.40
2023-03-17T05:49:03.440Z,4.65
2023-03-17T05:53:53.312Z,5.50
2023-03-17T05:58:13.711Z,4.68
2023-03-17T06:02:49.325Z,5.30
2023-03-17T06:07:24.471Z,5.50
2023-03-17T06:11:36.967Z,4.85
2023-03-17T06:16:10.420Z,4.93
2023-03-17T06:20:53.369Z,4.70
2023-03-17T06:24:57.032Z,4.80
2023-03-17T06:29:03.400Z,4.82
2023-03-17T06:33:08.190Z,4.70
2023-03-17T06:37:11.669Z,4.47
2023-03-17T06:41:14.844Z,5.18
2023-03-17T06:45:18.104Z,5.10
2023-03-17T06:49:22.201Z,4.50
2023-03-17T06:53:25.006Z,4.82
2023-03-17T06:57:27.970Z,4.32
2023-03-17T07:01:30.728Z,4.30
2023-03-17T07:05:34.873Z,4.50
2023-03-17T07:09:37.803Z,4.07
2023-03-17T07:13:41.210Z,4.30
2023-03-17T07:17:43.977Z,4.60
2023-03-17T07:21:49.146Z,4.32
2023-03-17T07:25:52.522Z,4.40
2023-03-17T07:29:55.270Z,4.65
2023-03-17T07:33:58.329Z,4.72
2023-03-17T07:38:02.947Z,4.60
2023-03-17T07:42:06.234Z,4.53
2023-03-17T07:46:09.146Z,4.35
2023-03-17T07:50:12.755Z,4.80
2023-03-17T07:54:17.057Z,4.78
2023-03-17T07:58:20.238Z,4.32
2023-03-17T08:02:23.012Z,4.00
2023-03-17T08:06:26.530Z,4.00
2023-03-17T08:10:30.965Z,3.78
2023-03-17T08:14:33.906Z,3.78
2023-03-17T08:18:37.119Z,3.53
2023-03-17T08:22:39.955Z,3.55
2023-03-17T08:26:44.051Z,3.53
2023-03-17T08:30:50.569Z,3.83
2023-03-17T08:34:55.095Z,3.88
2023-03-17T08:38:57.933Z,3.50
2023-03-17T08:43:02.276Z,3.33
2023-03-17T08:47:05.232Z,3.20
2023-03-17T08:51:08.288Z,3.15
2023-03-17T08:55:12.532Z,3.17
2023-03-17T08:59:17.097Z,2.88
2023-03-17T09:03:20.714Z,3.38
2023-03-17T09:07:23.459Z,3.17
2023-03-17T09:11:28.576Z,2.72
2023-03-17T09:15:33.776Z,2.75
2023-03-17T09:19:37.162Z,3.03
2023-03-17T09:23:40.315Z,3.30
2023-03-17T09:27:43.429Z,2.58
2023-03-17T09:31:48.454Z,2.72
2023-03-17T09:35:52.789Z,2.75
2023-03-17T09:39:55.673Z,2.95
2023-03-17T09:44:07.784Z,3.05
2023-03-17T09:48:29.396Z,2.80
2023-03-17T09:52:34.937Z,3.17
2023-03-17T09:56:39.287Z,3.00
2023-03-17T10:00:42.200Z,2.78
2023-03-17T10:04:47.788Z,3.08
2023-03-17T10:08:58.460Z,3.17
2023-03-17T10:13:08.340Z,2.55
2023-03-17T10:17:17.426Z,2.75
2023-03-17T10:21:26.581Z,2.78
2023-03-17T10:25:31.877Z,2.63
2023-03-17T10:29:34.740Z,2.75
2023-03-17T10:33:37.829Z,2.58
2023-03-17T10:37:43.914Z,2.55
2023-03-17T10:41:55.640Z,3.05
2023-03-17T10:46:04.048Z,2.42
2023-03-17T10:50:22.006Z,2.90
2023-03-17T10:54:26.535Z,2.65
2023-03-17T10:58:38.510Z,2.63
2023-03-17T11:02:46.559Z,2.70
2023-03-17T11:06:52.106Z,2.60
2023-03-17T11:10:57.539Z,2.55
2023-03-17T11:15:01.163Z,2.80
2023-03-17T11:19:06.539Z,2.85
2023-03-17T11:23:18.881Z,2.88
2023-03-17T11:27:31.238Z,3.10
2023-03-17T11:31:39.986Z,3.05
2023-03-17T11:35:50.147Z,2.72
2023-03-17T11:40:00.950Z,2.80
2023-03-17T11:44:37.058Z,3.20
2023-03-17T11:48:50.844Z,2.90
2023-03-17T11:53:16.568Z,3.08
2023-03-17T11:57:24.158Z,3.35
2023-03-17T12:01:35.295Z,3.20
2023-03-17T12:05:38.498Z,3.03
2023-03-17T12:09:44.359Z,2.63
2023-03-17T12:13:51.501Z,3.30
2023-03-17T12:18:00.749Z,2.95
2023-03-17T12:22:10.802Z,2.88
2023-03-17T12:26:16.272Z,3.20
2023-03-17T12:30:29.136Z,2.85
2023-03-17T12:34:41.811Z,3.10
2023-03-17T12:38:48.291Z,2.70
2023-03-17T12:42:53.561Z,3.20
2023-03-17T12:47:21.074Z,3.00
2023-03-17T12:51:40.077Z,2.92
2023-03-17T12:55:47.111Z,2.78
2023-03-17T12:59:57.384Z,3.00
2023-03-17T13:04:14.348Z,3.10
2023-03-17T13:08:25.070Z,2.85
2023-03-17T13:12:57.628Z,3.60
2023-03-17T13:17:06.174Z,3.45
2023-03-17T13:21:15.319Z,3.33
2023-03-17T13:25:33.588Z,3.00
2023-03-17T13:29:47.316Z,3.65
2023-03-17T13:33:53.426Z,3.22
2023-03-17T13:38:37.888Z,3.08
2023-03-17T13:43:03.052Z,3.15
2023-03-17T13:47:25.781Z,3.20
2023-03-17T13:51:33.648Z,2.88
2023-03-17T13:55:40.802Z,3.25
2023-03-17T13:59:56.729Z,3.05
2023-03-17T14:04:04.314Z,3.00
2023-03-17T14:08:16.734Z,2.63
2023-03-17T14:12:25.894Z,2.60
2023-03-17T14:16:33.428Z,2.70
2023-03-17T14:20:36.228Z,2.70
2023-03-17T14:24:40.925Z,2.88
2023-03-17T14:28:43.705Z,3.13
2023-03-17T14:32:51.515Z,3.13
2023-03-17T14:36:54.338Z,2.78
2023-03-17T14:41:02.865Z,3.00
2023-03-17T14:45:08.381Z,2.80
2023-03-17T14:49:17.635Z,2.95
2023-03-17T14:53:23.122Z,3.28
2023-03-17T14:57:30.225Z,3.30
2023-03-17T15:01:37.847Z,3.03
2023-03-17T15:05:43.902Z,3.13
2023-03-17T15:09:46.678Z,3.33
2023-03-17T15:13:50.722Z,2.75
2023-03-17T15:17:56.596Z,3.03
2023-03-17T15:22:05.295Z,2.97
2023-03-17T15:26:21.965Z,2.78
2023-03-17T15:30:27.434Z,2.85
2023-03-17T15:34:32.547Z,2.90
2023-03-17T15:38:38.961Z,2.88
2023-03-17T15:42:42.552Z,2.60
2023-03-17T15:46:45.317Z,2.95
2023-03-17T15:50:49.513Z,3.33
2023-03-17T15:54:54.990Z,3.10
2023-03-17T15:58:57.706Z,3.38
2023-03-17T16:03:04.921Z,3.58
2023-03-17T16:07:12.983Z,3.50
2023-03-17T16:11:19.230Z,2.90
2023-03-17T16:15:23.954Z,3.10
2023-03-17T16:19:27.656Z,3.03
2023-03-17T16:23:35.320Z,3.30
2023-03-17T16:27:40.764Z,2.92
2023-03-17T16:31:45.522Z,3.30
2023-03-17T16:35:49.416Z,2.80
2023-03-17T16:39:52.386Z,3.50
2023-03-17T16:44:01.588Z,3.60
2023-03-17T16:48:05.560Z,3.15
2023-03-17T16:52:08.960Z,3.42
2023-03-17T16:56:17.234Z,3.22
2023-03-17T17:00:25.469Z,3.60
2023-03-17T17:04:28.578Z,3.22
2023-03-17T17:08:31.341Z,2.80
2023-03-17T17:12:34.112Z,3.72
2023-03-17T17:16:39.818Z,3.05
2023-03-17T17:20:43.529Z,3.13
2023-03-17T17:24:46.346Z,3.10
2023-03-17T17:28:49.649Z,2.88
2023-03-17T17:32:53.985Z,3.20
2023-03-17T17:36:56.811Z,3.00
2023-03-17T17:41:05.614Z,3.00
2023-03-17T17:45:10.422Z,2.95
2023-03-17T17:49:14.461Z,2.78
2023-03-17T17:53:17.978Z,3.00
2023-03-17T17:57:21.649Z,2.85
2023-03-17T18:01:25.226Z,3.22
2023-03-17T18:05:29.585Z,4.13
2023-03-17T18:09:32.559Z,3.65
2023-03-17T18:13:36.270Z,3.20
2023-03-17T18:17:39.013Z,3.65
2023-03-17T18:21:43.530Z,3.63
2023-03-17T18:25:46.289Z,3.28
2023-03-17T18:29:49.644Z,3.60
2023-03-17T18:33:56.239Z,4.07
2023-03-17T18:38:01.465Z,5.07
2023-03-17T18:42:05.111Z,4.32
2023-03-17T18:46:08.189Z,3.55
2023-03-17T18:50:15.878Z,3.60
2023-03-17T18:54:20.350Z,4.40
2023-03-17T18:58:23.203Z,3.47
2023-03-17T19:02:26.173Z,3.95
2023-03-17T19:06:29.383Z,4.00
2023-03-17T19:10:33.918Z,5.78
2023-03-17T19:14:38.447Z,5.10
2023-03-17T19:18:42.438Z,5.65
2023-03-17T19:22:47.404Z,6.38
2023-03-17T19:26:51.447Z,4.80
2023-03-17T19:30:55.965Z,7.40
2023-03-17T19:34:58.804Z,7.80
2023-03-17T19:39:01.586Z,5.80
2023-03-17T19:43:06.292Z,5.32
2023-03-17T19:47:09.981Z,4.80
2023-03-17T19:51:12.697Z,5.60
2023-03-17T19:55:15.824Z,4.60
2023-03-17T19:59:20.106Z,4.57
2023-03-17T20:03:25.666Z,5.00
2023-03-17T20:07:29.045Z,5.00
2023-03-17T20:11:33.770Z,4.70
2023-03-17T20:15:38.237Z,4.07
2023-03-17T20:19:40.963Z,4.25
2023-03-17T20:23:43.691Z,4.85
2023-03-17T20:27:46.446Z,8.23
2023-03-17T20:31:50.594Z,6.45
2023-03-17T20:35:53.588Z,9.65
2023-03-17T20:39:57.390Z,10.70
2023-03-17T20:44:00.250Z,8.32
2023-03-17T20:48:06.010Z,7.65
2023-03-17T20:52:12.981Z,8.68
2023-03-17T20:56:19.620Z,9.82
2023-03-17T21:00:22.817Z,10.70
2023-03-17T21:04:26.991Z,11.57
2023-03-17T21:08:29.739Z,11.93
2023-03-17T21:12:32.667Z,12.10
2023-03-17T21:16:36.468Z,7.75
2023-03-17T21:20:42.001Z,7.57
2023-03-17T21:24:44.764Z,8.23
2023-03-17T21:28:48.682Z,7.15
2023-03-17T21:32:51.463Z,6.82
2023-03-17T21:36:57.115Z,6.75
2023-03-17T21:41:19.413Z,5.75
2023-03-17T21:45:22.244Z,4.70
2023-03-17T21:49:24.943Z,4.43
2023-03-17T21:53:30.310Z,3.53
2023-03-17T21:57:32.974Z,2.50
2023-03-17T22:01:35.865Z,2.88
2023-03-17T22:05:38.795Z,2.72
2023-03-17T22:09:43.660Z,3.13
2023-03-17T22:13:47.281Z,3.20
2023-03-17T22:17:50.008Z,3.40
2023-03-17T22:21:52.991Z,3.20
2023-03-17T22:25:58.141Z,2.92
2023-03-17T22:30:00.855Z,2.63
2023-03-17T22:34:04.641Z,2.80
2023-03-17T22:38:08.578Z,2.85
2023-03-17T22:42:12.927Z,2.70
2023-03-17T22:46:16.758Z,2.38
2023-03-17T22:50:20.363Z,2.70
2023-03-17T22:54:23.125Z,2.55
2023-03-17T22:58:28.000Z,2.10
2023-03-17T23:02:30.707Z,2.67
2023-03-17T23:06:35.101Z,2.42
2023-03-17T23:10:39.909Z,2.08
2023-03-17T23:14:44.293Z,2.20
2023-03-17T23:18:47.307Z,2.17
2023-03-17T23:22:50.060Z,2.40
2023-03-17T23:26:53.261Z,2.28
2023-03-17T23:30:57.418Z,1.90
2023-03-17T23:35:00.702Z,2.30
2023-03-17T23:39:03.792Z,2.45
2023-03-17T23:43:06.569Z,2.20
2023-03-17T23:47:10.920Z,2.20
2023-03-17T23:51:14.394Z,2.10
2023-03-17T23:55:19.697Z,2.30
2023-03-17T23:59:22.600Z,2.50
